sensor_id;sensor_type;location;lat;lon;timestamp;P1;durP1;ratioP1;P2;durP2;ratioP2
64157;SDS011;50449;51.528;5.076;2022-07-10T00:00:04;40.22;;;38.13;;
64157;SDS011;50449;51.528;5.076;2022-07-10T00:02:31;40.58;;;38.65;;
64157;SDS011;50449;51.528;5.076;2022-07-10T00:04:56;38.30;;;36.40;;
64157;SDS011;50449;51.528;5.076;2022-07-10T00:07:22;37.38;;;35.58;;
64157;SDS011;50449;51.528;5.076;2022-07-10T00:09:47;37.38;;;35.58;;
64157;SDS011;50449;51.528;5.076;2022-07-10T00:12:13;37.83;;;35.63;;
64157;SDS011;50449;51.528;5.076;2022-07-10T00:14:38;36.50;;;34.58;;
64157;SDS011;50449;51.528;5.076;2022-07-10T00:17:03;38.80;;;36.70;;
64157;SDS011;50449;51.528;5.076;2022-07-10T00:19:29;38.25;;;36.15;;
64157;SDS011;50449;51.528;5.076;2022-07-10T00:21:54;40.13;;;37.88;;
64157;SDS011;50449;51.528;5.076;2022-07-10T00:24:20;36.97;;;35.13;;
64157;SDS011;50449;51.528;5.076;2022-07-10T00:26:45;37.60;;;35.80;;
64157;SDS011;50449;51.528;5.076;2022-07-10T00:29:12;38.38;;;36.47;;
64157;SDS011;50449;51.528;5.076;2022-07-10T00:31:38;38.22;;;35.88;;
64157;SDS011;50449;51.528;5.076;2022-07-10T00:34:03;38.20;;;35.80;;
64157;SDS011;50449;51.528;5.076;2022-07-10T00:36:29;38.03;;;36.13;;
64157;SDS011;50449;51.528;5.076;2022-07-10T00:38:54;38.67;;;36.40;;
64157;SDS011;50449;51.528;5.076;2022-07-10T00:41:19;37.88;;;35.80;;
64157;SDS011;50449;51.528;5.076;2022-07-10T00:43:55;38.28;;;36.28;;
64157;SDS011;50449;51.528;5.076;2022-07-10T00:46:23;36.63;;;34.65;;
64157;SDS011;50449;51.528;5.076;2022-07-10T00:48:49;38.85;;;36.83;;
64157;SDS011;50449;51.528;5.076;2022-07-10T00:51:14;38.88;;;36.72;;
64157;SDS011;50449;51.528;5.076;2022-07-10T00:53:42;37.30;;;35.38;;
64157;SDS011;50449;51.528;5.076;2022-07-10T00:56:10;37.33;;;35.33;;
64157;SDS011;50449;51.528;5.076;2022-07-10T00:58:37;38.33;;;36.22;;
64157;SDS011;50449;51.528;5.076;2022-07-10T01:01:04;38.03;;;36.08;;
64157;SDS011;50449;51.528;5.076;2022-07-10T01:03:31;36.38;;;34.47;;
64157;SDS011;50449;51.528;5.076;2022-07-10T01:05:57;37.67;;;35.58;;
64157;SDS011;50449;51.528;5.076;2022-07-10T01:08:23;37.47;;;35.67;;
64157;SDS011;50449;51.528;5.076;2022-07-10T01:10:49;36.53;;;34.25;;
64157;SDS011;50449;51.528;5.076;2022-07-10T01:13:15;38.50;;;36.58;;
64157;SDS011;50449;51.528;5.076;2022-07-10T01:15:41;36.22;;;34.22;;
64157;SDS011;50449;51.528;5.076;2022-07-10T01:18:07;39.20;;;37.00;;
64157;SDS011;50449;51.528;5.076;2022-07-10T01:20:33;36.83;;;34.92;;
64157;SDS011;50449;51.528;5.076;2022-07-10T01:22:59;35.63;;;33.63;;
64157;SDS011;50449;51.528;5.076;2022-07-10T01:25:25;37.05;;;34.92;;
64157;SDS011;50449;51.528;5.076;2022-07-10T01:27:51;35.85;;;33.95;;
64157;SDS011;50449;51.528;5.076;2022-07-10T01:30:17;37.17;;;35.28;;
64157;SDS011;50449;51.528;5.076;2022-07-10T01:32:46;35.80;;;34.05;;
64157;SDS011;50449;51.528;5.076;2022-07-10T01:35:12;35.92;;;34.03;;
64157;SDS011;50449;51.528;5.076;2022-07-10T01:37:39;34.63;;;32.78;;
64157;SDS011;50449;51.528;5.076;2022-07-10T01:40:05;34.60;;;32.75;;
64157;SDS011;50449;51.528;5.076;2022-07-10T01:42:31;36.40;;;34.60;;
64157;SDS011;50449;51.528;5.076;2022-07-10T01:44:57;37.00;;;34.92;;
64157;SDS011;50449;51.528;5.076;2022-07-10T01:47:22;36.90;;;34.85;;
64157;SDS011;50449;51.528;5.076;2022-07-10T01:49:50;34.85;;;33.17;;
64157;SDS011;50449;51.528;5.076;2022-07-10T01:52:16;36.08;;;34.17;;
64157;SDS011;50449;51.528;5.076;2022-07-10T01:54:41;35.83;;;33.38;;
64157;SDS011;50449;51.528;5.076;2022-07-10T01:57:07;35.10;;;33.40;;
64157;SDS011;50449;51.528;5.076;2022-07-10T01:59:32;37.28;;;35.30;;
64157;SDS011;50449;51.528;5.076;2022-07-10T02:01:57;34.65;;;32.95;;
64157;SDS011;50449;51.528;5.076;2022-07-10T02:04:23;34.72;;;33.03;;
64157;SDS011;50449;51.528;5.076;2022-07-10T02:07:10;35.08;;;33.28;;
64157;SDS011;50449;51.528;5.076;2022-07-10T02:09:37;35.85;;;33.95;;
64157;SDS011;50449;51.528;5.076;2022-07-10T02:12:04;32.60;;;31.00;;
64157;SDS011;50449;51.528;5.076;2022-07-10T02:14:30;35.05;;;33.35;;
64157;SDS011;50449;51.528;5.076;2022-07-10T02:16:55;34.90;;;33.10;;
64157;SDS011;50449;51.528;5.076;2022-07-10T02:19:21;36.13;;;33.97;;
64157;SDS011;50449;51.528;5.076;2022-07-10T02:21:46;33.83;;;32.13;;
64157;SDS011;50449;51.528;5.076;2022-07-10T02:24:12;35.17;;;32.97;;
64157;SDS011;50449;51.528;5.076;2022-07-10T02:26:37;34.45;;;32.72;;
64157;SDS011;50449;51.528;5.076;2022-07-10T02:29:03;34.38;;;32.20;;
64157;SDS011;50449;51.528;5.076;2022-07-10T02:31:28;37.20;;;34.85;;
64157;SDS011;50449;51.528;5.076;2022-07-10T02:33:54;35.03;;;33.13;;
64157;SDS011;50449;51.528;5.076;2022-07-10T02:36:19;37.10;;;34.83;;
64157;SDS011;50449;51.528;5.076;2022-07-10T02:38:44;35.20;;;33.53;;
64157;SDS011;50449;51.528;5.076;2022-07-10T02:41:10;34.33;;;32.67;;
64157;SDS011;50449;51.528;5.076;2022-07-10T02:43:36;35.30;;;33.33;;
64157;SDS011;50449;51.528;5.076;2022-07-10T02:46:01;34.35;;;32.65;;
64157;SDS011;50449;51.528;5.076;2022-07-10T02:48:27;35.50;;;33.50;;
64157;SDS011;50449;51.528;5.076;2022-07-10T02:50:53;36.13;;;34.15;;
64157;SDS011;50449;51.528;5.076;2022-07-10T02:53:18;35.63;;;33.63;;
64157;SDS011;50449;51.528;5.076;2022-07-10T02:55:43;35.35;;;33.65;;
64157;SDS011;50449;51.528;5.076;2022-07-10T02:58:09;33.65;;;31.95;;
64157;SDS011;50449;51.528;5.076;2022-07-10T03:00:35;34.15;;;32.25;;
64157;SDS011;50449;51.528;5.076;2022-07-10T03:03:01;34.72;;;32.63;;
64157;SDS011;50449;51.528;5.076;2022-07-10T03:05:26;36.65;;;33.97;;
64157;SDS011;50449;51.528;5.076;2022-07-10T03:07:51;34.88;;;32.97;;
64157;SDS011;50449;51.528;5.076;2022-07-10T03:10:17;34.53;;;32.83;;
64157;SDS011;50449;51.528;5.076;2022-07-10T03:12:42;34.33;;;32.50;;
64157;SDS011;50449;51.528;5.076;2022-07-10T03:15:08;34.67;;;32.95;;
64157;SDS011;50449;51.528;5.076;2022-07-10T03:17:33;33.33;;;31.73;;
64157;SDS011;50449;51.528;5.076;2022-07-10T03:19:59;34.75;;;32.78;;
64157;SDS011;50449;51.528;5.076;2022-07-10T03:22:24;35.38;;;33.30;;
64157;SDS011;50449;51.528;5.076;2022-07-10T03:24:50;33.95;;;32.05;;
64157;SDS011;50449;51.528;5.076;2022-07-10T03:27:15;34.35;;;32.65;;
64157;SDS011;50449;51.528;5.076;2022-07-10T03:29:41;34.17;;;32.40;;
64157;SDS011;50449;51.528;5.076;2022-07-10T03:32:07;34.60;;;32.67;;
64157;SDS011;50449;51.528;5.076;2022-07-10T03:34:32;35.47;;;33.38;;
64157;SDS011;50449;51.528;5.076;2022-07-10T03:36:59;32.92;;;31.33;;
64157;SDS011;50449;51.528;5.076;2022-07-10T03:39:25;33.90;;;32.10;;
64157;SDS011;50449;51.528;5.076;2022-07-10T03:41:52;33.28;;;31.05;;
64157;SDS011;50449;51.528;5.076;2022-07-10T03:44:17;33.72;;;31.85;;
64157;SDS011;50449;51.528;5.076;2022-07-10T03:46:42;33.28;;;31.55;;
64157;SDS011;50449;51.528;5.076;2022-07-10T03:49:08;33.45;;;31.70;;
64157;SDS011;50449;51.528;5.076;2022-07-10T03:51:33;34.80;;;33.00;;
64157;SDS011;50449;51.528;5.076;2022-07-10T03:53:59;33.47;;;31.80;;
64157;SDS011;50449;51.528;5.076;2022-07-10T03:56:24;32.83;;;31.20;;
64157;SDS011;50449;51.528;5.076;2022-07-10T03:59:08;33.75;;;32.00;;
64157;SDS011;50449;51.528;5.076;2022-07-10T04:01:33;34.30;;;32.30;;
64157;SDS011;50449;51.528;5.076;2022-07-10T04:03:59;33.70;;;31.75;;
64157;SDS011;50449;51.528;5.076;2022-07-10T04:06:24;34.20;;;32.50;;
64157;SDS011;50449;51.528;5.076;2022-07-10T04:08:49;34.47;;;32.72;;
64157;SDS011;50449;51.528;5.076;2022-07-10T04:11:15;32.40;;;30.80;;
64157;SDS011;50449;51.528;5.076;2022-07-10T04:13:40;33.65;;;31.95;;
64157;SDS011;50449;51.528;5.076;2022-07-10T04:16:06;34.15;;;32.45;;
64157;SDS011;50449;51.528;5.076;2022-07-10T04:18:31;35.00;;;32.97;;
64157;SDS011;50449;51.528;5.076;2022-07-10T04:20:57;32.90;;;31.20;;
64157;SDS011;50449;51.528;5.076;2022-07-10T04:23:22;32.45;;;30.75;;
64157;SDS011;50449;51.528;5.076;2022-07-10T04:25:47;32.92;;;31.23;;
64157;SDS011;50449;51.528;5.076;2022-07-10T04:28:13;33.10;;;31.50;;
64157;SDS011;50449;51.528;5.076;2022-07-10T04:30:38;34.35;;;32.55;;
64157;SDS011;50449;51.528;5.076;2022-07-10T04:33:04;33.95;;;32.15;;
64157;SDS011;50449;51.528;5.076;2022-07-10T04:35:29;32.20;;;30.52;;
64157;SDS011;50449;51.528;5.076;2022-07-10T04:37:54;32.30;;;30.60;;
64157;SDS011;50449;51.528;5.076;2022-07-10T04:40:20;33.83;;;32.13;;
64157;SDS011;50449;51.528;5.076;2022-07-10T04:42:45;33.67;;;31.90;;
64157;SDS011;50449;51.528;5.076;2022-07-10T04:45:10;31.88;;;30.17;;
64157;SDS011;50449;51.528;5.076;2022-07-10T04:47:36;32.13;;;30.42;;
64157;SDS011;50449;51.528;5.076;2022-07-10T04:50:01;31.83;;;30.23;;
64157;SDS011;50449;51.528;5.076;2022-07-10T04:52:27;31.73;;;30.13;;
64157;SDS011;50449;51.528;5.076;2022-07-10T04:54:52;32.22;;;30.42;;
64157;SDS011;50449;51.528;5.076;2022-07-10T04:57:18;31.30;;;29.77;;
64157;SDS011;50449;51.528;5.076;2022-07-10T04:59:43;32.00;;;30.30;;
64157;SDS011;50449;51.528;5.076;2022-07-10T05:02:08;32.75;;;30.92;;
64157;SDS011;50449;51.528;5.076;2022-07-10T05:04:34;31.55;;;30.05;;
64157;SDS011;50449;51.528;5.076;2022-07-10T05:06:59;31.65;;;29.65;;
64157;SDS011;50449;51.528;5.076;2022-07-10T05:09:24;32.08;;;30.48;;
64157;SDS011;50449;51.528;5.076;2022-07-10T05:11:50;32.80;;;31.05;;
64157;SDS011;50449;51.528;5.076;2022-07-10T05:14:15;31.02;;;29.42;;
64157;SDS011;50449;51.528;5.076;2022-07-10T05:16:41;31.92;;;30.33;;
64157;SDS011;50449;51.528;5.076;2022-07-10T05:19:07;31.98;;;30.35;;
64157;SDS011;50449;51.528;5.076;2022-07-10T05:21:32;31.67;;;30.08;;
64157;SDS011;50449;51.528;5.076;2022-07-10T05:23:58;31.40;;;29.80;;
64157;SDS011;50449;51.528;5.076;2022-07-10T05:26:24;32.33;;;30.33;;
64157;SDS011;50449;51.528;5.076;2022-07-10T05:28:49;32.05;;;30.35;;
64157;SDS011;50449;51.528;5.076;2022-07-10T05:31:15;31.90;;;30.35;;
64157;SDS011;50449;51.528;5.076;2022-07-10T05:33:40;32.13;;;30.52;;
64157;SDS011;50449;51.528;5.076;2022-07-10T05:36:06;31.42;;;29.90;;
64157;SDS011;50449;51.528;5.076;2022-07-10T05:38:32;31.80;;;30.20;;
64157;SDS011;50449;51.528;5.076;2022-07-10T05:40:58;31.50;;;29.70;;
64157;SDS011;50449;51.528;5.076;2022-07-10T05:43:23;31.08;;;29.30;;
64157;SDS011;50449;51.528;5.076;2022-07-10T05:45:49;32.50;;;30.60;;
64157;SDS011;50449;51.528;5.076;2022-07-10T05:48:14;31.08;;;29.48;;
64157;SDS011;50449;51.528;5.076;2022-07-10T05:50:39;32.70;;;30.60;;
64157;SDS011;50449;51.528;5.076;2022-07-10T05:53:05;31.02;;;29.40;;
64157;SDS011;50449;51.528;5.076;2022-07-10T05:55:30;31.92;;;29.98;;
64157;SDS011;50449;51.528;5.076;2022-07-10T05:57:55;31.63;;;29.92;;
64157;SDS011;50449;51.528;5.076;2022-07-10T06:00:21;31.15;;;29.20;;
64157;SDS011;50449;51.528;5.076;2022-07-10T06:02:46;31.88;;;30.15;;
64157;SDS011;50449;51.528;5.076;2022-07-10T06:05:12;31.17;;;29.40;;
64157;SDS011;50449;51.528;5.076;2022-07-10T06:07:37;33.63;;;31.25;;
64157;SDS011;50449;51.528;5.076;2022-07-10T06:10:03;30.42;;;28.92;;
64157;SDS011;50449;51.528;5.076;2022-07-10T06:12:29;31.70;;;30.10;;
64157;SDS011;50449;51.528;5.076;2022-07-10T06:14:54;33.08;;;31.25;;
64157;SDS011;50449;51.528;5.076;2022-07-10T06:17:20;31.25;;;29.55;;
64157;SDS011;50449;51.528;5.076;2022-07-10T06:19:45;32.33;;;30.45;;
64157;SDS011;50449;51.528;5.076;2022-07-10T06:22:10;33.03;;;31.13;;
64157;SDS011;50449;51.528;5.076;2022-07-10T06:24:54;32.08;;;30.48;;
64157;SDS011;50449;51.528;5.076;2022-07-10T06:27:20;31.83;;;29.83;;
64157;SDS011;50449;51.528;5.076;2022-07-10T06:29:45;31.88;;;30.13;;
64157;SDS011;50449;51.528;5.076;2022-07-10T06:32:11;32.33;;;30.20;;
64157;SDS011;50449;51.528;5.076;2022-07-10T06:34:36;32.53;;;30.83;;
64157;SDS011;50449;51.528;5.076;2022-07-10T06:37:01;30.63;;;29.13;;
64157;SDS011;50449;51.528;5.076;2022-07-10T06:39:28;32.17;;;30.33;;
64157;SDS011;50449;51.528;5.076;2022-07-10T06:41:58;32.70;;;30.90;;
64157;SDS011;50449;51.528;5.076;2022-07-10T06:44:25;31.73;;;30.02;;
64157;SDS011;50449;51.528;5.076;2022-07-10T06:46:50;32.45;;;30.50;;
64157;SDS011;50449;51.528;5.076;2022-07-10T06:49:35;32.85;;;31.25;;
64157;SDS011;50449;51.528;5.076;2022-07-10T06:52:00;32.85;;;31.00;;
64157;SDS011;50449;51.528;5.076;2022-07-10T06:54:26;31.55;;;29.92;;
64157;SDS011;50449;51.528;5.076;2022-07-10T06:56:52;33.50;;;31.70;;
64157;SDS011;50449;51.528;5.076;2022-07-10T06:59:17;31.42;;;29.55;;
64157;SDS011;50449;51.528;5.076;2022-07-10T07:01:43;31.13;;;29.52;;
64157;SDS011;50449;51.528;5.076;2022-07-10T07:04:08;31.15;;;29.65;;
64157;SDS011;50449;51.528;5.076;2022-07-10T07:06:33;31.38;;;29.65;;
64157;SDS011;50449;51.528;5.076;2022-07-10T07:08:59;33.08;;;30.90;;
64157;SDS011;50449;51.528;5.076;2022-07-10T07:11:24;30.95;;;29.42;;
64157;SDS011;50449;51.528;5.076;2022-07-10T07:13:49;31.85;;;29.85;;
64157;SDS011;50449;51.528;5.076;2022-07-10T07:16:15;32.80;;;30.67;;
64157;SDS011;50449;51.528;5.076;2022-07-10T07:18:43;30.15;;;28.63;;
64157;SDS011;50449;51.528;5.076;2022-07-10T07:21:14;30.42;;;28.95;;
64157;SDS011;50449;51.528;5.076;2022-07-10T07:23:58;32.75;;;30.63;;
64157;SDS011;50449;51.528;5.076;2022-07-10T07:26:23;32.70;;;30.20;;
64157;SDS011;50449;51.528;5.076;2022-07-10T07:28:49;33.03;;;31.23;;
64157;SDS011;50449;51.528;5.076;2022-07-10T07:31:14;31.63;;;30.02;;
64157;SDS011;50449;51.528;5.076;2022-07-10T07:33:43;31.25;;;29.65;;
64157;SDS011;50449;51.528;5.076;2022-07-10T07:36:08;32.65;;;30.95;;
64157;SDS011;50449;51.528;5.076;2022-07-10T07:38:33;33.33;;;31.63;;
64157;SDS011;50449;51.528;5.076;2022-07-10T07:40:59;34.85;;;32.72;;
64157;SDS011;50449;51.528;5.076;2022-07-10T07:43:25;32.33;;;30.45;;
64157;SDS011;50449;51.528;5.076;2022-07-10T07:45:50;32.97;;;31.27;;
64157;SDS011;50449;51.528;5.076;2022-07-10T07:48:15;33.05;;;31.23;;
64157;SDS011;50449;51.528;5.076;2022-07-10T07:50:41;33.42;;;31.40;;
64157;SDS011;50449;51.528;5.076;2022-07-10T07:53:06;35.25;;;33.25;;
64157;SDS011;50449;51.528;5.076;2022-07-10T07:55:32;34.42;;;32.60;;
64157;SDS011;50449;51.528;5.076;2022-07-10T07:57:58;34.22;;;32.30;;
64157;SDS011;50449;51.528;5.076;2022-07-10T08:00:25;32.10;;;30.50;;
64157;SDS011;50449;51.528;5.076;2022-07-10T08:02:52;34.43;;;32.73;;
64157;SDS011;50449;51.528;5.076;2022-07-10T08:05:18;35.38;;;33.13;;
64157;SDS011;50449;51.528;5.076;2022-07-10T08:07:46;33.92;;;31.92;;
64157;SDS011;50449;51.528;5.076;2022-07-10T08:10:13;32.67;;;30.98;;
64157;SDS011;50449;51.528;5.076;2022-07-10T08:12:40;33.23;;;31.53;;
64157;SDS011;50449;51.528;5.076;2022-07-10T08:15:08;33.50;;;31.80;;
64157;SDS011;50449;51.528;5.076;2022-07-10T08:17:35;34.72;;;33.03;;
64157;SDS011;50449;51.528;5.076;2022-07-10T08:20:01;34.85;;;32.95;;
64157;SDS011;50449;51.528;5.076;2022-07-10T08:22:27;32.67;;;30.88;;
64157;SDS011;50449;51.528;5.076;2022-07-10T08:24:53;34.70;;;32.80;;
64157;SDS011;50449;51.528;5.076;2022-07-10T08:27:18;34.15;;;32.45;;
64157;SDS011;50449;51.528;5.076;2022-07-10T08:29:44;34.80;;;33.00;;
64157;SDS011;50449;51.528;5.076;2022-07-10T08:32:09;34.00;;;31.92;;
64157;SDS011;50449;51.528;5.076;2022-07-10T08:34:35;35.10;;;33.25;;
64157;SDS011;50449;51.528;5.076;2022-07-10T08:37:01;35.45;;;33.15;;
64157;SDS011;50449;51.528;5.076;2022-07-10T08:39:27;34.88;;;32.90;;
64157;SDS011;50449;51.528;5.076;2022-07-10T08:41:52;36.65;;;34.85;;
64157;SDS011;50449;51.528;5.076;2022-07-10T08:44:18;36.83;;;34.67;;
64157;SDS011;50449;51.528;5.076;2022-07-10T08:46:43;35.33;;;33.15;;
64157;SDS011;50449;51.528;5.076;2022-07-10T08:49:10;36.10;;;34.20;;
64157;SDS011;50449;51.528;5.076;2022-07-10T08:54:27;34.53;;;32.63;;
64157;SDS011;50449;51.528;5.076;2022-07-10T08:56:55;34.97;;;33.28;;
64157;SDS011;50449;51.528;5.076;2022-07-10T08:59:21;35.13;;;33.03;;
64157;SDS011;50449;51.528;5.076;2022-07-10T09:01:48;35.88;;;33.85;;
64157;SDS011;50449;51.528;5.076;2022-07-10T09:04:17;36.50;;;34.28;;
64157;SDS011;50449;51.528;5.076;2022-07-10T09:06:44;34.90;;;33.17;;
64157;SDS011;50449;51.528;5.076;2022-07-10T09:09:09;35.30;;;33.50;;
64157;SDS011;50449;51.528;5.076;2022-07-10T09:11:37;35.17;;;33.38;;
64157;SDS011;50449;51.528;5.076;2022-07-10T09:14:06;35.63;;;33.88;;
64157;SDS011;50449;51.528;5.076;2022-07-10T09:16:40;33.85;;;32.22;;
64157;SDS011;50449;51.528;5.076;2022-07-10T09:19:20;34.70;;;32.90;;
64157;SDS011;50449;51.528;5.076;2022-07-10T09:21:51;37.42;;;35.63;;
64157;SDS011;50449;51.528;5.076;2022-07-10T09:24:18;36.33;;;34.53;;
64157;SDS011;50449;51.528;5.076;2022-07-10T09:26:57;37.50;;;35.08;;
64157;SDS011;50449;51.528;5.076;2022-07-10T09:29:23;39.25;;;37.15;;
64157;SDS011;50449;51.528;5.076;2022-07-10T09:31:49;37.40;;;35.28;;
64157;SDS011;50449;51.528;5.076;2022-07-10T09:34:34;37.58;;;35.53;;
64157;SDS011;50449;51.528;5.076;2022-07-10T09:42:37;36.92;;;35.13;;
64157;SDS011;50449;51.528;5.076;2022-07-10T09:47:44;38.08;;;36.08;;
64157;SDS011;50449;51.528;5.076;2022-07-10T09:50:23;37.83;;;36.03;;
64157;SDS011;50449;51.528;5.076;2022-07-10T09:52:51;36.08;;;34.28;;
64157;SDS011;50449;51.528;5.076;2022-07-10T09:55:35;37.10;;;35.17;;
64157;SDS011;50449;51.528;5.076;2022-07-10T09:58:02;38.10;;;36.22;;
64157;SDS011;50449;51.528;5.076;2022-07-10T10:00:29;37.92;;;36.03;;
64157;SDS011;50449;51.528;5.076;2022-07-10T10:03:02;37.05;;;35.15;;
64157;SDS011;50449;51.528;5.076;2022-07-10T10:05:46;38.05;;;36.05;;
64157;SDS011;50449;51.528;5.076;2022-07-10T10:09:03;38.63;;;36.72;;
64157;SDS011;50449;51.528;5.076;2022-07-10T10:11:15;37.45;;;35.55;;
64157;SDS011;50449;51.528;5.076;2022-07-10T10:13:45;39.05;;;37.15;;
64157;SDS011;50449;51.528;5.076;2022-07-10T10:16:13;37.97;;;36.07;;
64157;SDS011;50449;51.528;5.076;2022-07-10T10:18:39;39.53;;;37.03;;
64157;SDS011;50449;51.528;5.076;2022-07-10T10:21:27;37.75;;;35.85;;
64157;SDS011;50449;51.528;5.076;2022-07-10T10:23:53;36.20;;;34.45;;
64157;SDS011;50449;51.528;5.076;2022-07-10T10:26:20;38.47;;;36.58;;
64157;SDS011;50449;51.528;5.076;2022-07-10T10:28:47;39.05;;;37.05;;
64157;SDS011;50449;51.528;5.076;2022-07-10T10:31:13;38.38;;;36.38;;
64157;SDS011;50449;51.528;5.076;2022-07-10T10:33:42;37.78;;;35.97;;
64157;SDS011;50449;51.528;5.076;2022-07-10T10:36:08;38.55;;;36.45;;
64157;SDS011;50449;51.528;5.076;2022-07-10T10:41:37;40.22;;;38.20;;
64157;SDS011;50449;51.528;5.076;2022-07-10T10:44:24;41.03;;;38.92;;
64157;SDS011;50449;51.528;5.076;2022-07-10T10:54:21;39.58;;;37.58;;
64157;SDS011;50449;51.528;5.076;2022-07-10T10:56:57;39.90;;;37.70;;
64157;SDS011;50449;51.528;5.076;2022-07-10T10:59:45;41.08;;;38.78;;
64157;SDS011;50449;51.528;5.076;2022-07-10T11:10:27;38.33;;;36.47;;
64157;SDS011;50449;51.528;5.076;2022-07-10T11:13:06;39.75;;;37.78;;
64157;SDS011;50449;51.528;5.076;2022-07-10T11:15:33;41.28;;;39.28;;
64157;SDS011;50449;51.528;5.076;2022-07-10T11:18:04;43.90;;;41.80;;
64157;SDS011;50449;51.528;5.076;2022-07-10T11:20:37;41.72;;;39.58;;
64157;SDS011;50449;51.528;5.076;2022-07-10T11:26:02;41.30;;;38.80;;
64157;SDS011;50449;51.528;5.076;2022-07-10T11:28:55;40.85;;;38.78;;
64157;SDS011;50449;51.528;5.076;2022-07-10T11:31:21;41.38;;;39.28;;
64157;SDS011;50449;51.528;5.076;2022-07-10T11:33:49;40.35;;;38.35;;
64157;SDS011;50449;51.528;5.076;2022-07-10T11:38:43;39.08;;;37.22;;
64157;SDS011;50449;51.528;5.076;2022-07-10T11:41:16;42.03;;;40.03;;
64157;SDS011;50449;51.528;5.076;2022-07-10T11:43:49;42.17;;;40.00;;
64157;SDS011;50449;51.528;5.076;2022-07-10T11:46:18;40.92;;;38.92;;
64157;SDS011;50449;51.528;5.076;2022-07-10T11:48:46;40.58;;;38.60;;
64157;SDS011;50449;51.528;5.076;2022-07-10T11:51:31;41.45;;;39.35;;
64157;SDS011;50449;51.528;5.076;2022-07-10T11:53:59;43.83;;;41.60;;
64157;SDS011;50449;51.528;5.076;2022-07-10T11:56:26;45.25;;;43.10;;
64157;SDS011;50449;51.528;5.076;2022-07-10T11:59:00;43.38;;;41.10;;
64157;SDS011;50449;51.528;5.076;2022-07-10T12:01:28;42.47;;;40.38;;
64157;SDS011;50449;51.528;5.076;2022-07-10T12:03:58;43.25;;;40.65;;
64157;SDS011;50449;51.528;5.076;2022-07-10T12:06:25;43.05;;;40.65;;
64157;SDS011;50449;51.528;5.076;2022-07-10T12:08:51;44.40;;;42.20;;
64157;SDS011;50449;51.528;5.076;2022-07-10T12:11:18;42.92;;;40.72;;
64157;SDS011;50449;51.528;5.076;2022-07-10T12:13:44;43.67;;;41.38;;
64157;SDS011;50449;51.528;5.076;2022-07-10T12:16:11;44.75;;;42.55;;
64157;SDS011;50449;51.528;5.076;2022-07-10T12:18:37;44.17;;;41.97;;
64157;SDS011;50449;51.528;5.076;2022-07-10T12:21:06;44.90;;;42.70;;
64157;SDS011;50449;51.528;5.076;2022-07-10T12:23:33;45.35;;;42.97;;
64157;SDS011;50449;51.528;5.076;2022-07-10T12:26:00;46.90;;;44.30;;
64157;SDS011;50449;51.528;5.076;2022-07-10T12:28:28;43.67;;;41.47;;
64157;SDS011;50449;51.528;5.076;2022-07-10T12:30:54;43.83;;;41.72;;
64157;SDS011;50449;51.528;5.076;2022-07-10T12:33:19;44.55;;;41.88;;
64157;SDS011;50449;51.528;5.076;2022-07-10T12:35:55;47.15;;;44.63;;
64157;SDS011;50449;51.528;5.076;2022-07-10T12:38:29;45.83;;;43.60;;
64157;SDS011;50449;51.528;5.076;2022-07-10T12:43:52;43.08;;;41.03;;
64157;SDS011;50449;51.528;5.076;2022-07-10T12:46:22;45.42;;;43.13;;
64157;SDS011;50449;51.528;5.076;2022-07-10T12:49:04;47.75;;;44.80;;
64157;SDS011;50449;51.528;5.076;2022-07-10T12:51:46;47.28;;;44.67;;
64157;SDS011;50449;51.528;5.076;2022-07-10T12:57:00;48.42;;;45.72;;
64157;SDS011;50449;51.528;5.076;2022-07-10T12:59:26;44.05;;;41.85;;
64157;SDS011;50449;51.528;5.076;2022-07-10T13:01:53;44.63;;;42.33;;
64157;SDS011;50449;51.528;5.076;2022-07-10T13:04:25;46.15;;;43.75;;
64157;SDS011;50449;51.528;5.076;2022-07-10T13:06:52;45.10;;;42.83;;
64157;SDS011;50449;51.528;5.076;2022-07-10T13:09:24;45.70;;;43.38;;
64157;SDS011;50449;51.528;5.076;2022-07-10T13:11:51;46.35;;;44.05;;
64157;SDS011;50449;51.528;5.076;2022-07-10T13:14:17;45.40;;;43.10;;
64157;SDS011;50449;51.528;5.076;2022-07-10T13:16:43;46.83;;;44.63;;
64157;SDS011;50449;51.528;5.076;2022-07-10T13:19:09;45.90;;;43.67;;
64157;SDS011;50449;51.528;5.076;2022-07-10T13:21:34;48.75;;;46.25;;
64157;SDS011;50449;51.528;5.076;2022-07-10T13:24:01;46.40;;;44.10;;
64157;SDS011;50449;51.528;5.076;2022-07-10T13:26:28;46.97;;;44.67;;
64157;SDS011;50449;51.528;5.076;2022-07-10T13:28:54;45.45;;;43.15;;
64157;SDS011;50449;51.528;5.076;2022-07-10T13:31:20;45.92;;;43.70;;
64157;SDS011;50449;51.528;5.076;2022-07-10T13:33:45;47.05;;;44.55;;
64157;SDS011;50449;51.528;5.076;2022-07-10T13:36:11;47.10;;;44.65;;
64157;SDS011;50449;51.528;5.076;2022-07-10T13:38:36;47.33;;;45.10;;
64157;SDS011;50449;51.528;5.076;2022-07-10T13:41:02;46.40;;;44.20;;
64157;SDS011;50449;51.528;5.076;2022-07-10T13:43:27;47.65;;;45.35;;
64157;SDS011;50449;51.528;5.076;2022-07-10T13:45:56;47.28;;;44.97;;
64157;SDS011;50449;51.528;5.076;2022-07-10T13:48:23;48.55;;;45.72;;
64157;SDS011;50449;51.528;5.076;2022-07-10T13:50:49;48.75;;;46.42;;
64157;SDS011;50449;51.528;5.076;2022-07-10T13:53:15;48.35;;;46.05;;
64157;SDS011;50449;51.528;5.076;2022-07-10T13:55:41;46.40;;;44.15;;
64157;SDS011;50449;51.528;5.076;2022-07-10T13:58:07;47.85;;;45.55;;
64157;SDS011;50449;51.528;5.076;2022-07-10T14:00:34;46.50;;;44.30;;
64157;SDS011;50449;51.528;5.076;2022-07-10T14:02:59;48.40;;;46.10;;
64157;SDS011;50449;51.528;5.076;2022-07-10T14:05:25;47.83;;;45.42;;
64157;SDS011;50449;51.528;5.076;2022-07-10T14:07:50;46.70;;;44.30;;
64157;SDS011;50449;51.528;5.076;2022-07-10T14:10:16;46.85;;;44.65;;
64157;SDS011;50449;51.528;5.076;2022-07-10T14:12:42;46.88;;;44.45;;
64157;SDS011;50449;51.528;5.076;2022-07-10T14:15:07;50.00;;;47.58;;
64157;SDS011;50449;51.528;5.076;2022-07-10T14:17:33;49.25;;;46.83;;
64157;SDS011;50449;51.528;5.076;2022-07-10T14:19:59;47.97;;;45.55;;
64157;SDS011;50449;51.528;5.076;2022-07-10T14:22:24;47.92;;;45.72;;
64157;SDS011;50449;51.528;5.076;2022-07-10T14:24:50;46.25;;;43.95;;
64157;SDS011;50449;51.528;5.076;2022-07-10T14:27:16;45.85;;;43.70;;
64157;SDS011;50449;51.528;5.076;2022-07-10T14:29:42;48.33;;;46.03;;
64157;SDS011;50449;51.528;5.076;2022-07-10T14:32:07;46.83;;;44.33;;
64157;SDS011;50449;51.528;5.076;2022-07-10T14:34:33;48.70;;;46.30;;
64157;SDS011;50449;51.528;5.076;2022-07-10T14:36:58;50.90;;;48.42;;
64157;SDS011;50449;51.528;5.076;2022-07-10T14:39:24;49.20;;;46.70;;
64157;SDS011;50449;51.528;5.076;2022-07-10T14:41:49;50.03;;;47.53;;
64157;SDS011;50449;51.528;5.076;2022-07-10T14:44:15;46.70;;;44.38;;
64157;SDS011;50449;51.528;5.076;2022-07-10T14:46:40;47.55;;;45.15;;
64157;SDS011;50449;51.528;5.076;2022-07-10T14:49:05;47.53;;;45.22;;
64157;SDS011;50449;51.528;5.076;2022-07-10T14:51:31;49.40;;;47.03;;
64157;SDS011;50449;51.528;5.076;2022-07-10T14:53:56;50.92;;;48.53;;
64157;SDS011;50449;51.528;5.076;2022-07-10T14:56:22;48.80;;;46.40;;
64157;SDS011;50449;51.528;5.076;2022-07-10T14:58:48;49.65;;;47.33;;
64157;SDS011;50449;51.528;5.076;2022-07-10T15:01:14;49.05;;;46.72;;